Time;durP1;ratioP1;P1;durP2;ratioP2;P2;SDS_P1;SDS_P2;PMS_P1;PMS_P2;Temp;Humidity;BMP_temperature;BMP_pressure;BME280_temperature;BME280_humidity;BME280_pressure;Samples;Min_cycle;Max_cycle;Signal;HPM_P1;HPM_P2
2022/08/09 00:01:52;;;;;;;1.25;1.17;;;;;;;;;;4972718;28;20230;-67
2022/08/09 00:04:20;;;;;;;1.45;1.35;;;;;;;;;;4972213;28;20219;-67
2022/08/09 00:06:47;;;;;;;1.50;1.30;;;;;;;;;;4972685;28;20206;-67
2022/08/09 00:09:16;;;;;;;1.38;1.27;;;;;;;;;;4972100;28;20211;-67
2022/08/09 00:11:44;;;;;;;1.30;1.30;;;;;;;;;;4972363;28;20904;-67
2022/08/09 00:14:11;;;;;;;1.20;1.20;;;;;;;;;;4971903;28;20558;-67
2022/08/09 00:16:38;;;;;;;1.63;1.02;;;;;;;;;;4972305;28;20284;-67
2022/08/09 00:19:07;;;;;;;1.35;1.20;;;;;;;;;;4972156;28;20210;-67
2022/08/09 00:21:34;;;;;;;1.45;1.42;;;;;;;;;;4972232;28;20216;-68
2022/08/09 00:24:01;;;;;;;2.15;1.63;;;;;;;;;;4967858;28;20211;-67
2022/08/09 00:26:29;;;;;;;1.40;1.35;;;;;;;;;;4971983;28;20217;-67
2022/08/09 00:28:56;;;;;;;2.35;1.23;;;;;;;;;;4971584;28;20733;-67
2022/08/09 00:31:23;;;;;;;3.92;1.40;;;;;;;;;;4971726;28;20331;-66
2022/08/09 00:33:50;;;;;;;1.65;1.55;;;;;;;;;;4971219;28;20428;-66
2022/08/09 00:36:19;;;;;;;1.45;1.42;;;;;;;;;;4970679;28;20207;-67
2022/08/09 00:38:46;;;;;;;1.10;1.10;;;;;;;;;;4970986;28;20281;-67
2022/08/09 00:41:13;;;;;;;1.13;1.13;;;;;;;;;;4970400;28;20206;-66
2022/08/09 00:43:41;;;;;;;2.95;1.30;;;;;;;;;;4970657;28;20226;-66
2022/08/09 00:46:09;;;;;;;1.10;1.10;;;;;;;;;;4971532;28;20199;-66
2022/08/09 00:48:37;;;;;;;1.30;1.30;;;;;;;;;;4970419;28;20316;-68
2022/08/09 00:51:06;;;;;;;1.70;1.50;;;;;;;;;;4970265;28;20206;-68
2022/08/09 00:53:35;;;;;;;1.48;1.38;;;;;;;;;;4971137;28;20289;-68
2022/08/09 00:56:02;;;;;;;1.13;1.13;;;;;;;;;;4970974;28;20211;-68
2022/08/09 00:58:30;;;;;;;1.27;1.20;;;;;;;;;;4970838;28;20255;-66
2022/08/09 01:00:58;;;;;;;1.70;1.20;;;;;;;;;;4970807;28;20244;-66
2022/08/09 01:03:29;;;;;;;1.50;1.50;;;;;;;;;;4969996;28;20229;-67
2022/08/09 01:06:00;;;;;;;1.30;1.30;;;;;;;;;;4970442;28;20206;-67
2022/08/09 01:08:29;;;;;;;1.17;1.17;;;;;;;;;;4970159;28;20676;-66
2022/08/09 01:11:04;;;;;;;1.30;1.30;;;;;;;;;;4970255;28;20218;-66
2022/08/09 01:13:37;;;;;;;1.48;1.30;;;;;;;;;;4967456;28;20214;-67
2022/08/09 01:16:05;;;;;;;1.20;1.13;;;;;;;;;;4968339;28;20210;-67
2022/08/09 01:18:33;;;;;;;3.90;1.40;;;;;;;;;;4970872;28;20207;-66
2022/08/09 01:21:07;;;;;;;3.03;1.60;;;;;;;;;;4970220;28;20273;-67
2022/08/09 01:23:40;;;;;;;1.67;1.38;;;;;;;;;;4969860;28;20245;-66
2022/08/09 01:26:22;;;;;;;1.30;1.30;;;;;;;;;;4969782;28;20213;-67
2022/08/09 01:28:54;;;;;;;1.30;1.30;;;;;;;;;;4970418;28;20214;-67
2022/08/09 01:31:23;;;;;;;1.27;1.20;;;;;;;;;;4969956;28;20301;-67
2022/08/09 01:33:50;;;;;;;1.80;1.70;;;;;;;;;;4970193;28;20202;-66
2022/08/09 01:36:19;;;;;;;2.08;1.35;;;;;;;;;;4970634;28;20213;-67
2022/08/09 01:38:47;;;;;;;1.88;1.77;;;;;;;;;;4970634;28;20218;-67
2022/08/09 01:41:16;;;;;;;1.25;1.25;;;;;;;;;;4970703;28;20206;-66
2022/08/09 01:43:45;;;;;;;1.50;1.40;;;;;;;;;;4963415;28;20230;-67
2022/08/09 01:46:13;;;;;;;2.15;1.13;;;;;;;;;;4970321;28;20206;-66
2022/08/09 01:48:42;;;;;;;1.35;1.35;;;;;;;;;;4968821;28;20571;-67
2022/08/09 01:51:09;;;;;;;1.98;1.63;;;;;;;;;;4966384;28;20202;-66
2022/08/09 01:53:37;;;;;;;1.73;1.63;;;;;;;;;;4969422;28;20198;-67
2022/08/09 01:56:05;;;;;;;1.13;1.13;;;;;;;;;;4968675;28;20215;-67
2022/08/09 01:58:33;;;;;;;3.80;1.73;;;;;;;;;;4968449;28;20229;-68
2022/08/09 02:01:01;;;;;;;5.72;1.77;;;;;;;;;;4963607;28;20218;-67
2022/08/09 02:03:30;;;;;;;1.42;1.42;;;;;;;;;;4969150;28;20322;-68
2022/08/09 02:05:59;;;;;;;1.45;1.35;;;;;;;;;;4967734;28;20664;-67
2022/08/09 02:08:26;;;;;;;2.25;1.50;;;;;;;;;;4967804;28;20214;-69
2022/08/09 02:10:55;;;;;;;1.85;1.75;;;;;;;;;;4968652;28;20262;-68
2022/08/09 02:13:24;;;;;;;1.70;1.60;;;;;;;;;;4967752;28;20203;-68
2022/08/09 02:15:54;;;;;;;1.60;1.60;;;;;;;;;;4968706;28;20568;-68
2022/08/09 02:18:23;;;;;;;1.77;1.70;;;;;;;;;;4968131;28;20265;-68
2022/08/09 02:20:55;;;;;;;1.40;1.40;;;;;;;;;;4967969;28;20676;-68
2022/08/09 02:23:26;;;;;;;1.65;1.55;;;;;;;;;;4968416;28;20696;-68
2022/08/09 02:25:56;;;;;;;1.55;1.48;;;;;;;;;;4967130;28;20213;-67
2022/08/09 02:28:27;;;;;;;3.25;1.52;;;;;;;;;;4967551;28;20210;-68
2022/08/09 02:30:59;;;;;;;1.60;1.60;;;;;;;;;;4968022;28;20598;-68
2022/08/09 02:33:26;;;;;;;3.45;1.60;;;;;;;;;;4967981;28;20207;-67
2022/08/09 02:35:56;;;;;;;1.70;1.60;;;;;;;;;;4967953;28;20785;-68
2022/08/09 02:38:25;;;;;;;1.52;1.42;;;;;;;;;;4967242;28;20259;-73
2022/08/09 02:40:54;;;;;;;2.85;1.40;;;;;;;;;;4967962;28;20202;-72
2022/08/09 02:43:21;;;;;;;2.08;1.90;;;;;;;;;;4969204;28;20639;-72
2022/08/09 02:45:49;;;;;;;1.73;1.63;;;;;;;;;;4969763;28;20242;-72
2022/08/09 02:48:17;;;;;;;1.88;1.38;;;;;;;;;;4967013;28;20229;-73
2022/08/09 02:50:45;;;;;;;1.73;1.73;;;;;;;;;;4966541;28;20238;-72
2022/08/09 02:53:17;;;;;;;1.67;1.60;;;;;;;;;;4968091;28;20550;-72
2022/08/09 02:55:44;;;;;;;1.80;1.70;;;;;;;;;;4964808;28;20309;-71
2022/08/09 02:58:12;;;;;;;1.60;1.60;;;;;;;;;;4966639;28;20214;-73
2022/08/09 03:00:40;;;;;;;1.50;1.50;;;;;;;;;;4967577;28;20257;-73
2022/08/09 03:03:08;;;;;;;2.78;1.80;;;;;;;;;;4967787;28;20285;-72
2022/08/09 03:05:35;;;;;;;1.63;1.52;;;;;;;;;;4967388;28;20222;-72
2022/08/09 03:08:04;;;;;;;2.47;1.73;;;;;;;;;;4967752;28;20668;-71
2022/08/09 03:10:33;;;;;;;1.85;1.80;;;;;;;;;;4967981;28;20572;-72
2022/08/09 03:13:00;;;;;;;2.25;1.80;;;;;;;;;;4966541;28;20202;-72
2022/08/09 03:15:27;;;;;;;1.55;1.55;;;;;;;;;;4971839;28;20199;-73
2022/08/09 03:17:55;;;;;;;1.95;1.80;;;;;;;;;;4971742;28;20613;-72
2022/08/09 03:20:22;;;;;;;2.17;1.88;;;;;;;;;;4971093;28;20285;-73
2022/08/09 03:22:50;;;;;;;1.85;1.75;;;;;;;;;;4971669;28;20288;-73
2022/08/09 03:25:17;;;;;;;3.33;1.70;;;;;;;;;;4971216;28;20203;-72
2022/08/09 03:27:46;;;;;;;7.50;2.03;;;;;;;;;;4970470;28;20253;-71
2022/08/09 03:30:13;;;;;;;1.63;1.63;;;;;;;;;;4971432;28;20280;-72
2022/08/09 03:32:41;;;;;;;1.65;1.65;;;;;;;;;;4970956;28;20203;-73
2022/08/09 03:35:10;;;;;;;1.80;1.80;;;;;;;;;;4970855;28;20261;-68
2022/08/09 03:37:37;;;;;;;1.77;1.67;;;;;;;;;;4971173;28;20280;-69
2022/08/09 03:40:05;;;;;;;2.13;2.00;;;;;;;;;;4970353;28;20206;-69
2022/08/09 03:42:32;;;;;;;1.92;1.83;;;;;;;;;;4971156;28;20233;-68
2022/08/09 03:45:00;;;;;;;2.90;2.25;;;;;;;;;;4971026;28;20203;-68
2022/08/09 03:47:27;;;;;;;2.00;1.90;;;;;;;;;;4970403;28;20486;-68
2022/08/09 03:49:56;;;;;;;2.33;2.10;;;;;;;;;;4971036;28;20991;-68
2022/08/09 03:52:24;;;;;;;1.60;1.60;;;;;;;;;;4970856;28;20209;-69
2022/08/09 03:54:52;;;;;;;2.25;1.77;;;;;;;;;;4970271;28;20211;-68
2022/08/09 03:57:20;;;;;;;1.60;1.60;;;;;;;;;;4970782;28;20261;-68
2022/08/09 03:59:47;;;;;;;3.90;1.30;;;;;;;;;;4970848;28;20281;-69
2022/08/09 04:02:16;;;;;;;4.53;1.80;;;;;;;;;;4969852;28;20210;-69
2022/08/09 04:04:43;;;;;;;1.70;1.60;;;;;;;;;;4970775;28;20238;-68
2022/08/09 04:07:10;;;;;;;1.50;1.50;;;;;;;;;;4970357;28;20657;-69
2022/08/09 04:09:37;;;;;;;3.70;1.80;;;;;;;;;;4970752;28;20207;-68
2022/08/09 04:12:14;;;;;;;5.43;1.77;;;;;;;;;;4970934;28;20213;-69
2022/08/09 04:14:41;;;;;;;1.48;1.45;;;;;;;;;;4968355;28;20202;-69
2022/08/09 04:17:09;;;;;;;2.17;1.70;;;;;;;;;;4970675;28;20665;-69
2022/08/09 04:19:37;;;;;;;5.78;2.05;;;;;;;;;;4970377;28;20358;-69
2022/08/09 04:22:04;;;;;;;2.13;1.77;;;;;;;;;;4968774;28;20270;-69
2022/08/09 04:24:31;;;;;;;1.40;1.40;;;;;;;;;;4969347;28;20227;-70
2022/08/09 04:26:58;;;;;;;2.78;1.88;;;;;;;;;;4969548;28;20214;-69
2022/08/09 04:29:25;;;;;;;1.73;1.63;;;;;;;;;;4969935;28;20217;-69
2022/08/09 04:31:52;;;;;;;3.05;1.70;;;;;;;;;;4970388;28;20202;-69
2022/08/09 04:34:19;;;;;;;1.55;1.55;;;;;;;;;;4968442;28;20310;-70
2022/08/09 04:36:48;;;;;;;1.75;1.65;;;;;;;;;;4970067;28;20218;-69
2022/08/09 04:39:15;;;;;;;2.30;2.20;;;;;;;;;;4970311;28;20206;-69
2022/08/09 04:41:42;;;;;;;3.05;1.92;;;;;;;;;;4969653;28;20210;-68
2022/08/09 04:44:10;;;;;;;2.00;1.90;;;;;;;;;;4970160;28;20230;-69
2022/08/09 04:46:38;;;;;;;1.63;1.58;;;;;;;;;;4969713;28;20304;-68
2022/08/09 04:49:05;;;;;;;3.95;1.77;;;;;;;;;;4969820;28;20635;-69
2022/08/09 04:51:32;;;;;;;2.30;2.20;;;;;;;;;;4969986;28;20261;-68
2022/08/09 04:54:01;;;;;;;4.88;1.90;;;;;;;;;;4969234;28;20198;-68
2022/08/09 04:56:29;;;;;;;1.95;1.80;;;;;;;;;;4969987;28;20309;-69
2022/08/09 04:58:56;;;;;;;3.13;1.98;;;;;;;;;;4968723;28;20301;-68
2022/08/09 05:01:23;;;;;;;5.68;1.98;;;;;;;;;;4967983;28;20199;-68
2022/08/09 05:03:50;;;;;;;2.15;2.00;;;;;;;;;;4969792;28;20585;-70
2022/08/09 05:06:17;;;;;;;2.20;2.10;;;;;;;;;;4969826;28;20364;-70
2022/08/09 05:08:44;;;;;;;2.92;1.85;;;;;;;;;;4969646;28;20299;-70
2022/08/09 05:11:13;;;;;;;2.03;1.92;;;;;;;;;;4970064;28;20211;-69
2022/08/09 05:13:40;;;;;;;1.60;1.60;;;;;;;;;;4969221;28;20315;-70
2022/08/09 05:16:07;;;;;;;3.17;1.80;;;;;;;;;;4969209;28;20297;-70
2022/08/09 05:18:35;;;;;;;2.17;2.08;;;;;;;;;;4969863;28;20664;-70
2022/08/09 05:21:02;;;;;;;2.20;2.20;;;;;;;;;;4967425;28;20290;-70
2022/08/09 05:23:29;;;;;;;1.67;1.60;;;;;;;;;;4969538;28;20226;-69
2022/08/09 05:25:56;;;;;;;2.95;1.77;;;;;;;;;;4969517;28;20233;-69
2022/08/09 05:28:24;;;;;;;1.95;1.85;;;;;;;;;;4968959;28;20206;-69
2022/08/09 05:30:51;;;;;;;4.80;2.22;;;;;;;;;;4969636;28;20202;-70
2022/08/09 05:33:19;;;;;;;2.33;2.13;;;;;;;;;;4969221;28;20207;-70
2022/08/09 05:35:46;;;;;;;2.53;1.73;;;;;;;;;;4968881;28;20289;-69
2022/08/09 05:38:13;;;;;;;4.38;1.70;;;;;;;;;;4969407;28;20210;-69
2022/08/09 05:40:40;;;;;;;1.75;1.75;;;;;;;;;;4969130;28;20697;-69
2022/08/09 05:43:07;;;;;;;2.13;2.03;;;;;;;;;;4968539;28;20208;-69
2022/08/09 05:45:36;;;;;;;2.40;1.95;;;;;;;;;;4969339;28;20218;-68
2022/08/09 05:48:03;;;;;;;2.03;1.88;;;;;;;;;;4966590;28;20221;-68
2022/08/09 05:50:30;;;;;;;2.00;1.90;;;;;;;;;;4968907;28;20652;-69
2022/08/09 05:52:57;;;;;;;1.92;1.70;;;;;;;;;;4969478;28;20209;-70
2022/08/09 05:55:25;;;;;;;2.20;2.03;;;;;;;;;;4967108;28;20210;-69
2022/08/09 05:57:52;;;;;;;2.75;2.00;;;;;;;;;;4968404;28;20207;-70
2022/08/09 06:00:19;;;;;;;2.10;2.00;;;;;;;;;;4969153;28;20229;-69
2022/08/09 06:02:47;;;;;;;1.48;1.48;;;;;;;;;;4968911;28;20236;-70
2022/08/09 06:05:14;;;;;;;2.08;1.98;;;;;;;;;;4968749;28;20932;-70
2022/08/09 06:07:41;;;;;;;2.53;1.73;;;;;;;;;;4968766;28;20199;-70
2022/08/09 06:10:09;;;;;;;1.98;1.88;;;;;;;;;;4969620;28;20639;-69
2022/08/09 06:12:36;;;;;;;2.00;1.95;;;;;;;;;;4968773;28;20210;-69
2022/08/09 06:15:04;;;;;;;3.42;1.90;;;;;;;;;;4968154;28;20206;-69
2022/08/09 06:17:31;;;;;;;2.78;1.65;;;;;;;;;;4968061;28;20203;-70
2022/08/09 06:19:59;;;;;;;2.35;1.85;;;;;;;;;;4968987;28;20290;-69
2022/08/09 06:22:26;;;;;;;4.60;1.60;;;;;;;;;;4968816;28;20260;-70
2022/08/09 06:24:53;;;;;;;3.53;1.73;;;;;;;;;;4967964;28;20230;-69
2022/08/09 06:27:20;;;;;;;6.13;1.67;;;;;;;;;;4967304;28;20261;-69
2022/08/09 06:29:57;;;;;;;4.15;1.90;;;;;;;;;;4968440;28;20199;-68
2022/08/09 06:32:24;;;;;;;3.88;2.20;;;;;;;;;;4968125;28;20240;-69
2022/08/09 06:34:51;;;;;;;1.90;1.80;;;;;;;;;;4966823;28;20207;-69
2022/08/09 06:37:19;;;;;;;2.13;2.03;;;;;;;;;;4967250;28;20218;-70
2022/08/09 06:39:46;;;;;;;2.47;1.48;;;;;;;;;;4968207;28;20665;-68
2022/08/09 06:42:13;;;;;;;2.35;1.63;;;;;;;;;;4969089;28;20210;-68
2022/08/09 06:44:40;;;;;;;3.20;1.60;;;;;;;;;;4965811;28;20218;-68
2022/08/09 06:47:07;;;;;;;2.20;2.10;;;;;;;;;;4967372;28;20650;-68
2022/08/09 06:49:34;;;;;;;1.90;1.80;;;;;;;;;;4967497;28;20238;-67
2022/08/09 06:52:02;;;;;;;3.13;2.15;;;;;;;;;;4968834;28;20209;-68
2022/08/09 06:54:30;;;;;;;1.90;1.80;;;;;;;;;;4968490;28;20210;-68
2022/08/09 06:56:57;;;;;;;1.77;1.48;;;;;;;;;;4967313;28;20631;-68
2022/08/09 06:59:24;;;;;;;1.67;1.52;;;;;;;;;;4965632;28;20755;-67
2022/08/09 07:01:51;;;;;;;2.55;1.48;;;;;;;;;;4967847;28;20237;-68
2022/08/09 07:04:18;;;;;;;1.63;1.52;;;;;;;;;;4968293;28;20218;-67
2022/08/09 07:06:45;;;;;;;2.08;1.98;;;;;;;;;;4967984;28;20265;-68
2022/08/09 07:09:12;;;;;;;1.83;1.70;;;;;;;;;;4967780;28;20218;-66
2022/08/09 07:11:41;;;;;;;2.38;1.70;;;;;;;;;;4968226;28;20202;-68
2022/08/09 07:14:08;;;;;;;1.63;1.52;;;;;;;;;;4967817;28;20661;-69
2022/08/09 07:16:35;;;;;;;1.85;1.55;;;;;;;;;;4967304;28;20203;-70
2022/08/09 07:19:02;;;;;;;2.00;1.90;;;;;;;;;;4968412;28;20637;-68
2022/08/09 07:21:29;;;;;;;1.77;1.67;;;;;;;;;;4967820;28;20210;-69
2022/08/09 07:23:56;;;;;;;1.58;1.48;;;;;;;;;;4966987;28;20320;-67
2022/08/09 07:26:23;;;;;;;4.57;1.80;;;;;;;;;;4967720;28;20223;-67
2022/08/09 07:28:51;;;;;;;2.80;1.30;;;;;;;;;;4964809;28;20209;-68
2022/08/09 07:31:19;;;;;;;1.80;1.70;;;;;;;;;;4967987;28;20233;-69
2022/08/09 07:33:46;;;;;;;1.80;1.73;;;;;;;;;;4963090;28;20247;-67
2022/08/09 07:36:13;;;;;;;1.55;1.55;;;;;;;;;;4967677;28;20207;-66
2022/08/09 07:38:40;;;;;;;1.75;1.65;;;;;;;;;;4966273;28;20206;-66
2022/08/09 07:41:07;;;;;;;1.65;1.60;;;;;;;;;;4967355;28;20230;-66
2022/08/09 07:43:34;;;;;;;1.45;1.40;;;;;;;;;;4967559;28;20203;-67
2022/08/09 07:46:03;;;;;;;3.35;1.65;;;;;;;;;;4968189;28;20277;-66
2022/08/09 07:48:30;;;;;;;4.38;1.50;;;;;;;;;;4967447;28;20226;-67
2022/08/09 07:50:57;;;;;;;3.83;1.23;;;;;;;;;;4968995;28;20221;-67
2022/08/09 07:53:24;;;;;;;1.65;1.63;;;;;;;;;;4968607;28;20551;-67
2022/08/09 07:55:51;;;;;;;1.65;1.40;;;;;;;;;;4966839;28;20669;-67
2022/08/09 07:58:18;;;;;;;1.73;1.35;;;;;;;;;;4965000;28;20217;-67
2022/08/09 08:00:45;;;;;;;1.70;1.60;;;;;;;;;;4967447;28;20232;-67
2022/08/09 08:03:14;;;;;;;4.95;1.88;;;;;;;;;;4967923;28;20215;-67
2022/08/09 08:05:41;;;;;;;1.67;1.60;;;;;;;;;;4969663;28;20592;-66
2022/08/09 08:08:08;;;;;;;5.10;1.63;;;;;;;;;;4970407;28;20262;-70
2022/08/09 08:10:36;;;;;;;2.15;1.90;;;;;;;;;;4970652;28;20206;-70
2022/08/09 08:13:03;;;;;;;1.80;1.70;;;;;;;;;;4969111;28;20210;-69
2022/08/09 08:15:30;;;;;;;1.52;1.40;;;;;;;;;;4969766;28;20233;-69
2022/08/09 08:17:57;;;;;;;1.60;1.30;;;;;;;;;;4970252;28;20208;-69
2022/08/09 08:20:26;;;;;;;6.13;1.40;;;;;;;;;;4970751;28;20207;-71
2022/08/09 08:22:53;;;;;;;2.80;1.30;;;;;;;;;;4969786;28;20225;-71
2022/08/09 08:25:21;;;;;;;3.60;1.58;;;;;;;;;;4970822;28;20340;-70
2022/08/09 08:27:48;;;;;;;1.77;1.67;;;;;;;;;;4970852;28;20298;-71
2022/08/09 08:30:17;;;;;;;2.45;1.40;;;;;;;;;;4970195;28;20203;-70
2022/08/09 08:32:44;;;;;;;1.80;1.50;;;;;;;;;;4970230;28;20249;-71
2022/08/09 08:35:11;;;;;;;1.80;1.70;;;;;;;;;;4970617;28;20218;-71
2022/08/09 08:37:39;;;;;;;1.42;1.42;;;;;;;;;;4967481;28;20210;-71
2022/08/09 08:40:07;;;;;;;1.80;1.52;;;;;;;;;;4970799;28;20261;-71
2022/08/09 08:42:34;;;;;;;2.95;1.48;;;;;;;;;;4969717;28;20237;-71
2022/08/09 08:45:01;;;;;;;1.40;1.30;;;;;;;;;;4970330;28;20230;-71
2022/08/09 08:47:29;;;;;;;1.35;1.23;;;;;;;;;;4969987;28;20222;-70
2022/08/09 08:49:58;;;;;;;2.15;1.50;;;;;;;;;;4970045;28;20246;-70
2022/08/09 08:52:25;;;;;;;3.70;1.63;;;;;;;;;;4970395;28;20206;-65
2022/08/09 08:54:55;;;;;;;1.77;1.60;;;;;;;;;;4969924;28;20207;-65
2022/08/09 08:57:22;;;;;;;1.75;1.60;;;;;;;;;;4970436;28;20203;-65
2022/08/09 08:59:50;;;;;;;1.88;1.40;;;;;;;;;;4968960;28;20214;-66
2022/08/09 09:02:22;;;;;;;1.30;1.30;;;;;;;;;;4969150;28;20209;-65
2022/08/09 09:04:50;;;;;;;1.70;1.50;;;;;;;;;;4962894;28;20248;-65
2022/08/09 09:07:18;;;;;;;1.63;1.30;;;;;;;;;;4967673;28;20229;-68
2022/08/09 09:09:46;;;;;;;1.67;1.58;;;;;;;;;;4978727;28;20209;-70
2022/08/09 09:12:15;;;;;;;2.30;1.38;;;;;;;;;;4980827;28;20795;-71
2022/08/09 09:14:43;;;;;;;1.88;1.77;;;;;;;;;;4970882;28;20210;-70
2022/08/09 09:17:10;;;;;;;2.20;1.55;;;;;;;;;;4970376;28;20329;-71
2022/08/09 09:19:37;;;;;;;2.30;1.70;;;;;;;;;;4970531;28;20269;-69
2022/08/09 09:22:05;;;;;;;2.42;1.70;;;;;;;;;;4970407;28;20202;-71
2022/08/09 09:24:33;;;;;;;2.10;1.27;;;;;;;;;;4970280;28;20715;-74
2022/08/09 09:27:01;;;;;;;2.88;1.42;;;;;;;;;;4969161;28;20217;-70
2022/08/09 09:29:30;;;;;;;1.38;1.35;;;;;;;;;;4969062;28;20222;-73
2022/08/09 09:31:57;;;;;;;2.60;1.55;;;;;;;;;;4970293;28;20217;-73
2022/08/09 09:34:24;;;;;;;1.70;1.60;;;;;;;;;;4969556;28;20225;-72
2022/08/09 09:36:51;;;;;;;5.68;1.33;;;;;;;;;;4970351;28;20656;-71
2022/08/09 09:39:18;;;;;;;1.52;1.42;;;;;;;;;;4970430;28;20221;-72
2022/08/09 09:41:46;;;;;;;1.65;1.40;;;;;;;;;;4969792;28;20214;-73
2022/08/09 09:44:13;;;;;;;1.60;1.55;;;;;;;;;;4969303;28;20206;-72
2022/08/09 09:46:45;;;;;;;1.20;1.20;;;;;;;;;;4969649;28;20234;-72
2022/08/09 09:49:13;;;;;;;1.73;1.30;;;;;;;;;;4969812;28;20234;-72
2022/08/09 09:51:41;;;;;;;2.83;1.38;;;;;;;;;;4969355;28;20212;-73
2022/08/09 09:54:09;;;;;;;1.25;1.25;;;;;;;;;;4969500;28;20227;-72
2022/08/09 09:56:37;;;;;;;1.10;1.10;;;;;;;;;;4968209;28;20202;-71
2022/08/09 09:59:04;;;;;;;1.42;1.42;;;;;;;;;;4968509;28;20635;-72
2022/08/09 10:01:31;;;;;;;1.38;1.20;;;;;;;;;;4967096;28;20257;-70
2022/08/09 10:04:00;;;;;;;2.50;1.20;;;;;;;;;;4969649;28;20198;-70
2022/08/09 10:06:27;;;;;;;1.40;1.30;;;;;;;;;;4967208;28;20230;-70
2022/08/09 10:08:59;;;;;;;1.40;1.40;;;;;;;;;;4969632;28;20221;-70
2022/08/09 10:11:27;;;;;;;1.30;1.30;;;;;;;;;;4970124;28;20553;-70
2022/08/09 10:13:54;;;;;;;1.58;1.10;;;;;;;;;;4969736;28;20199;-66
2022/08/09 10:16:28;;;;;;;1.20;1.02;;;;;;;;;;4969622;28;20298;-66
2022/08/09 10:18:55;;;;;;;1.33;1.30;;;;;;;;;;4963509;28;20215;-65
2022/08/09 10:21:24;;;;;;;1.20;1.20;;;;;;;;;;4968588;28;20625;-66
2022/08/09 10:23:51;;;;;;;1.33;1.23;;;;;;;;;;4968755;28;20210;-65
2022/08/09 10:26:20;;;;;;;4.20;1.60;;;;;;;;;;4969107;28;20229;-65
2022/08/09 10:28:47;;;;;;;1.75;1.52;;;;;;;;;;4969871;28;20857;-66
2022/08/09 10:31:15;;;;;;;3.95;1.38;;;;;;;;;;4970084;28;20222;-65
2022/08/09 10:33:42;;;;;;;3.00;1.60;;;;;;;;;;4968916;28;20267;-72
2022/08/09 10:36:10;;;;;;;1.33;1.30;;;;;;;;;;4968393;28;20207;-67
2022/08/09 10:38:40;;;;;;;3.05;1.60;;;;;;;;;;4969431;28;20198;-67
2022/08/09 10:41:07;;;;;;;2.10;1.33;;;;;;;;;;4969853;28;20245;-67
2022/08/09 10:43:35;;;;;;;1.67;1.40;;;;;;;;;;4969075;28;20213;-65
2022/08/09 10:46:12;;;;;;;0.98;0.95;;;;;;;;;;4963338;28;20285;-67
2022/08/09 10:48:42;;;;;;;1.30;1.30;;;;;;;;;;4971286;28;20866;-67
2022/08/09 10:51:13;;;;;;;1.35;1.13;;;;;;;;;;4968550;28;20230;-68
2022/08/09 10:53:53;;;;;;;1.10;1.10;;;;;;;;;;4965888;28;20214;-67
2022/08/09 10:56:22;;;;;;;2.50;1.40;;;;;;;;;;4969765;28;21050;-67
2022/08/09 10:58:49;;;;;;;1.20;1.20;;;;;;;;;;4969626;28;20764;-68
2022/08/09 11:01:36;;;;;;;1.13;1.13;;;;;;;;;;4969897;28;20264;-68
2022/08/09 11:04:19;;;;;;;1.10;1.10;;;;;;;;;;4969284;28;20202;-68
2022/08/09 11:06:47;;;;;;;3.58;1.17;;;;;;;;;;4966554;28;20230;-72
2022/08/09 11:09:16;;;;;;;1.95;1.30;;;;;;;;;;4969368;28;20737;-72
2022/08/09 11:12:04;;;;;;;6.60;1.50;;;;;;;;;;4976360;28;20206;-72
2022/08/09 11:14:34;;;;;;;1.40;1.25;;;;;;;;;;4969597;28;20215;-72
2022/08/09 11:17:01;;;;;;;1.30;1.30;;;;;;;;;;4969534;28;20206;-72
2022/08/09 11:19:47;;;;;;;1.40;1.30;;;;;;;;;;4969651;28;20262;-70
2022/08/09 11:22:14;;;;;;;1.85;1.25;;;;;;;;;;4975677;28;20218;-70
2022/08/09 11:24:59;;;;;;;1.40;1.30;;;;;;;;;;4969499;28;20592;-71
2022/08/09 11:27:31;;;;;;;1.15;1.10;;;;;;;;;;4969621;28;20214;-71
2022/08/09 11:29:58;;;;;;;3.00;1.40;;;;;;;;;;4969583;28;20487;-71
2022/08/09 11:32:43;;;;;;;2.15;1.23;;;;;;;;;;4969528;28;20217;-72
2022/08/09 11:35:15;;;;;;;2.42;1.20;;;;;;;;;;4971429;28;20210;-72
2022/08/09 11:37:42;;;;;;;1.23;1.23;;;;;;;;;;4973019;28;20297;-70
2022/08/09 11:40:11;;;;;;;1.65;1.35;;;;;;;;;;4973007;28;20257;-71
2022/08/09 11:42:40;;;;;;;1.40;1.23;;;;;;;;;;4976222;28;20210;-65
2022/08/09 11:45:19;;;;;;;1.75;1.15;;;;;;;;;;4972781;28;20206;-67
2022/08/09 11:47:46;;;;;;;1.17;1.17;;;;;;;;;;4973346;28;20297;-67
2022/08/09 11:50:13;;;;;;;4.20;1.10;;;;;;;;;;4972557;28;20297;-69
2022/08/09 11:52:55;;;;;;;3.20;1.40;;;;;;;;;;4973000;28;20632;-69
2022/08/09 11:55:32;;;;;;;1.88;0.90;;;;;;;;;;4971158;28;20233;-69
2022/08/09 11:58:01;;;;;;;1.25;1.17;;;;;;;;;;4972641;28;20264;-69
2022/08/09 12:00:29;;;;;;;12.82;1.35;;;;;;;;;;4971118;28;20218;-69
2022/08/09 12:02:57;;;;;;;2.08;1.02;;;;;;;;;;4970553;28;20215;-67
2022/08/09 12:05:30;;;;;;;1.05;0.98;;;;;;;;;;4971787;28;20234;-67
2022/08/09 12:07:57;;;;;;;1.80;0.70;;;;;;;;;;4980381;28;20206;-66
2022/08/09 12:10:24;;;;;;;0.80;0.80;;;;;;;;;;4971663;28;20276;-66
2022/08/09 12:12:51;;;;;;;1.08;0.90;;;;;;;;;;4972373;28;20206;-64
2022/08/09 12:15:24;;;;;;;1.00;1.00;;;;;;;;;;4972196;28;20222;-67
2022/08/09 12:17:51;;;;;;;3.45;1.00;;;;;;;;;;4972007;28;20294;-67
2022/08/09 12:20:19;;;;;;;0.90;0.90;;;;;;;;;;4971829;28;20686;-67
2022/08/09 12:22:46;;;;;;;0.80;0.80;;;;;;;;;;4972036;28;20227;-68
2022/08/09 12:25:14;;;;;;;1.65;1.10;;;;;;;;;;4971804;28;20607;-67
2022/08/09 12:27:41;;;;;;;1.85;0.95;;;;;;;;;;4971598;28;20202;-65
2022/08/09 12:30:09;;;;;;;1.10;1.10;;;;;;;;;;4971875;28;20206;-67
2022/08/09 12:32:37;;;;;;;0.85;0.85;;;;;;;;;;4972109;28;20214;-67
2022/08/09 12:35:05;;;;;;;1.52;0.90;;;;;;;;;;4970450;28;20210;-68
2022/08/09 12:37:33;;;;;;;2.15;0.88;;;;;;;;;;4969472;28;20622;-67
2022/08/09 12:40:01;;;;;;;2.70;1.10;;;;;;;;;;4989500;28;20724;-70
2022/08/09 12:42:28;;;;;;;1.00;1.00;;;;;;;;;;4976717;28;20249;-70
2022/08/09 12:44:55;;;;;;;0.93;0.93;;;;;;;;;;4971099;28;20638;-66
2022/08/09 12:47:22;;;;;;;0.90;0.90;;;;;;;;;;4971314;28;20242;-66
2022/08/09 12:52:38;;;;;;;0.93;0.93;;;;;;;;;;4968646;28;20221;-67
2022/08/09 12:55:06;;;;;;;2.20;1.20;;;;;;;;;;4970844;28;20213;-67
2022/08/09 12:57:40;;;;;;;0.80;0.80;;;;;;;;;;4970926;28;20217;-67
2022/08/09 13:00:16;;;;;;;1.17;1.10;;;;;;;;;;4968852;28;20210;-67
2022/08/09 13:02:47;;;;;;;0.98;0.98;;;;;;;;;;4970615;28;20665;-68
2022/08/09 13:05:16;;;;;;;5.38;1.00;;;;;;;;;;4971004;28;20214;-67
2022/08/09 13:07:43;;;;;;;1.88;0.70;;;;;;;;;;4970754;28;20649;-67
2022/08/09 13:10:10;;;;;;;0.95;0.95;;;;;;;;;;4969840;28;20215;-66
2022/08/09 13:12:47;;;;;;;3.40;0.80;;;;;;;;;;4971246;28;20214;-67
2022/08/09 13:15:14;;;;;;;1.10;0.90;;;;;;;;;;4971018;28;20221;-67
2022/08/09 13:17:41;;;;;;;0.88;0.88;;;;;;;;;;4970144;28;20228;-68
2022/08/09 13:20:25;;;;;;;1.13;1.13;;;;;;;;;;4970695;28;20221;-68
2022/08/09 13:23:04;;;;;;;1.30;0.98;;;;;;;;;;4969258;28;20213;-68
2022/08/09 13:25:38;;;;;;;0.88;0.88;;;;;;;;;;4970523;28;20217;-68
2022/08/09 13:28:09;;;;;;;2.65;0.90;;;;;;;;;;4970347;28;20760;-68
2022/08/09 13:30:36;;;;;;;1.40;1.00;;;;;;;;;;4968726;28;20290;-68
2022/08/09 13:33:04;;;;;;;2.25;1.15;;;;;;;;;;4966182;28;20214;-68
2022/08/09 13:35:31;;;;;;;1.17;1.17;;;;;;;;;;4970487;28;20214;-68
2022/08/09 13:37:59;;;;;;;0.80;0.80;;;;;;;;;;4969768;28;20210;-68
2022/08/09 13:40:26;;;;;;;1.00;1.00;;;;;;;;;;4970483;28;20658;-68
2022/08/09 13:42:53;;;;;;;2.42;1.20;;;;;;;;;;4970226;28;20206;-68
2022/08/09 13:45:21;;;;;;;3.40;1.00;;;;;;;;;;4969981;28;20233;-68
2022/08/09 13:47:48;;;;;;;1.00;1.00;;;;;;;;;;4969505;28;20312;-66
2022/08/09 13:50:15;;;;;;;1.15;1.10;;;;;;;;;;4969543;28;20245;-66
2022/08/09 13:52:43;;;;;;;1.55;1.23;;;;;;;;;;4969469;28;20574;-68
2022/08/09 13:55:11;;;;;;;2.10;1.30;;;;;;;;;;4970330;28;20257;-66
2022/08/09 13:57:39;;;;;;;1.00;1.00;;;;;;;;;;4967147;28;20210;-66
2022/08/09 14:00:08;;;;;;;1.20;1.20;;;;;;;;;;4968984;28;20207;-67
2022/08/09 14:02:35;;;;;;;3.13;3.03;;;;;;;;;;4969549;28;20206;-66
2022/08/09 14:05:02;;;;;;;4.53;1.10;;;;;;;;;;4969934;28;20261;-66
2022/08/09 14:07:29;;;;;;;1.02;0.85;;;;;;;;;;4970031;28;20269;-66
2022/08/09 14:09:56;;;;;;;1.33;1.33;;;;;;;;;;4968722;28;20276;-66
2022/08/09 14:12:25;;;;;;;1.17;1.08;;;;;;;;;;4969708;28;20697;-66
2022/08/09 14:14:52;;;;;;;1.40;1.30;;;;;;;;;;4969664;28;20218;-65
2022/08/09 14:17:19;;;;;;;1.25;1.10;;;;;;;;;;4970155;28;20205;-65
2022/08/09 14:19:46;;;;;;;1.17;1.17;;;;;;;;;;4969693;28;20214;-65
2022/08/09 14:22:13;;;;;;;1.10;1.10;;;;;;;;;;4969996;28;20214;-65
2022/08/09 14:24:42;;;;;;;2.50;0.90;;;;;;;;;;4970070;28;20206;-65
2022/08/09 14:27:09;;;;;;;2.75;0.90;;;;;;;;;;4969857;28;20230;-65
2022/08/09 14:29:37;;;;;;;2.10;1.20;;;;;;;;;;4969196;28;20297;-66
2022/08/09 14:32:05;;;;;;;0.90;0.90;;;;;;;;;;4969768;28;20850;-65
2022/08/09 14:34:32;;;;;;;2.75;1.10;;;;;;;;;;4966511;28;20264;-66
2022/08/09 14:36:59;;;;;;;1.45;1.30;;;;;;;;;;4969851;28;20207;-66
2022/08/09 14:39:26;;;;;;;1.50;0.90;;;;;;;;;;4969495;28;20273;-66
2022/08/09 14:41:53;;;;;;;1.02;0.90;;;;;;;;;;4969503;28;20551;-65
2022/08/09 14:44:23;;;;;;;1.38;1.15;;;;;;;;;;4969448;28;20211;-66
2022/08/09 14:46:53;;;;;;;1.75;1.10;;;;;;;;;;4969277;28;20237;-67
2022/08/09 14:49:20;;;;;;;1.60;1.00;;;;;;;;;;4968995;28;20422;-66
2022/08/09 14:51:47;;;;;;;1.60;1.27;;;;;;;;;;4969336;28;20210;-66
2022/08/09 14:54:15;;;;;;;1.77;1.20;;;;;;;;;;4967284;28;20222;-64